• Join FlightAware (Why Join?)
  • Login
  • US Flag 
06:58PM EDT


 

Airport Tracker/Info


-or-


 

Live Flight TrackerFlight Track Log ✈ SWA554 ✈ 02-Feb-2014 ✈ KMSY - KBWI

Flight Track Log - Related Links

Times and Time Zones

All times are in EST time to prevent confusion due to time zone crossing. See the SWA554 flight status page for this flight to view local times or setup timezone preferences in your user account.

Time Position Orientation Groundspeed Altitude Reporting Facility
EST Latitude Longitude Course Direction KTS MPH feet Rate Location/Type
08:08AM 29.9886 -90.2558 90° East 146 168 700  Level Houston Center
08:08AM 29.9886 -90.2511 90° East 145 167 900 1,500 Climbing Houston Center
08:09AM 29.9836 -90.2028 97° East 184 212 2,300 1,920 Climbing Houston Center
08:09AM 29.9806 -90.1914 107° East 208 239 2,900 2,640 Climbing Houston Center
08:10AM 29.9750 -90.1333 96° East 209 241 5,000 2,700 Climbing Houston Center
08:11AM 29.9686 -90.0444 95° East 263 303 8,300 3,060 Climbing Houston Center
08:12AM 30.0389 -89.9861 36° Northeast 317 365 11,200 3,000 Climbing Houston Center
08:13AM 30.1331 -89.9383 24° Northeast 360 414 14,400 3,240 Climbing Houston Center
08:14AM 30.2319 -89.8875 24° Northeast 382 440 17,800 3,120 Climbing Houston Center
08:15AM 30.3450 -89.8094 31° Northeast 412 474 20,800 2,460 Climbing Houston Center
08:16AM 30.4061 -89.7006 57° Northeast 434 499 22,900 2,160 Climbing Houston Center
08:17AM 30.4747 -89.5783 57° Northeast 446 513 25,200 2,100 Climbing Houston Center
08:18AM 30.5458 -89.4511 57° Northeast 462 532 27,200 1,740 Climbing Houston Center
08:19AM 30.6200 -89.3189 57° Northeast 481 554 28,800 1,560 Climbing Houston Center
08:20AM 30.6958 -89.1789 58° Northeast 505 581 30,400 1,500 Climbing Houston Center
08:21AM 30.7747 -89.0369 57° Northeast 518 596 31,900 1,740 Climbing Houston Center
08:22AM 30.8600 -88.8806 58° Northeast 528 608 34,000 2,100 Climbing Houston Center
08:23AM 30.9389 -88.7392 57° Northeast 524 603 36,200 1,560 Climbing Houston Center
08:24AM 31.0078 -88.6119 58° Northeast 512 589 37,200 1,140 Climbing Houston Center
08:25AM 31.0842 -88.4714 58° Northeast 513 590 38,600 840 Climbing Houston Center
08:26AM 31.1769 -88.3039 57° Northeast 514 592 39,000 180 Climbing Houston Center
08:27AM 31.2481 -88.1692 58° Northeast 515 593 39,000  Level Houston Center
08:28AM 31.3242 -88.0275 58° Northeast 512 589 39,000  Level Houston Center
08:29AM 31.3989 -87.8869 58° Northeast 509 586 39,000  Level Houston Center
08:30AM 31.4733 -87.7469 58° Northeast 507 583 39,000  Level Houston Center
08:31AM 31.5481 -87.6053 58° Northeast 509 586 39,000  Level Houston Center
08:32AM 31.6386 -87.4633 53° Northeast 505 581 39,000  Level Atlanta Center
08:33AM 31.7236 -87.3372 52° Northeast 505 581 39,000  Level Atlanta Center
08:34AM 31.7975 -87.2203 53° Northeast 498 573 39,000  Level Atlanta Center
08:35AM 31.8800 -87.0886 54° Northeast 493 567 39,000  Level Atlanta Center
08:36AM 31.9667 -86.9569 52° Northeast 498 573 39,000  Level Atlanta Center
08:37AM 32.0533 -86.8275 52° Northeast 498 573 39,000  Level Atlanta Center
08:38AM 32.1544 -86.6833 50° Northeast 503 579 39,000  Level Atlanta Center
08:39AM 32.2386 -86.5508 53° Northeast 503 579 39,000  Level Atlanta Center
08:40AM 32.3247 -86.4206 52° Northeast 503 579 39,000  Level Atlanta Center
08:41AM 32.3983 -86.2847 57° Northeast 496 571 39,000  Level Atlanta Center
08:42AM 32.4883 -86.1467 52° Northeast 501 577 39,000  Level Atlanta Center
08:43AM 32.5675 -86.0253 52° Northeast 520 598 39,000  Level Atlanta Center
08:44AM 32.6597 -85.8769 54° Northeast 520 598 39,000  Level Atlanta Center
08:45AM 32.7450 -85.7431 53° Northeast 514 592 39,000  Level Atlanta Center
08:46AM 32.8303 -85.6061 53° Northeast 508 585 39,000  Level Atlanta Center
08:47AM 32.9156 -85.4742 52° Northeast 508 585 39,000  Level Atlanta Center
08:48AM 33.0006 -85.3367 54° Northeast 508 585 39,000  Level Atlanta Center
08:49AM 33.0769 -85.2189 52° Northeast 508 585 39,000  Level Atlanta Center
08:50AM 33.1636 -85.0811 53° Northeast 501 577 39,000  Level Atlanta Center
08:51AM 33.2547 -84.9306 54° Northeast 501 577 39,000  Level Atlanta Center
08:52AM 33.3411 -84.7922 53° Northeast 506 582 39,000  Level Atlanta Center
08:53AM 33.4253 -84.6536 54° Northeast 506 582 39,000  Level Atlanta Center
08:54AM 33.5094 -84.5147 54° Northeast 511 588 39,000  Level Atlanta Center
08:55AM 33.5914 -84.3731 55° Northeast 516 594 39,000  Level Atlanta Center
08:56AM 33.6772 -84.2361 53° Northeast 516 594 39,000  Level Atlanta Center
08:57AM 33.7650 -84.0914 54° Northeast 528 608 39,000  Level Atlanta Center
08:58AM 33.8506 -83.9489 54° Northeast 528 608 39,000  Level Atlanta Center
08:59AM 33.9339 -83.8058 55° Northeast 523 602 39,000  Level Atlanta Center
09:00AM 34.0192 -83.6703 53° Northeast 518 596 39,000  Level Atlanta Center
09:01AM 34.1022 -83.5294 55° Northeast 524 603 39,000  Level Atlanta Center
09:02AM 34.1869 -83.3858 54° Northeast 524 603 39,000  Level Atlanta Center
09:03AM 34.2697 -83.2419 55° Northeast 524 603 39,000  Level Atlanta Center
09:04AM 34.3542 -83.1003 54° Northeast 524 603 39,000  Level Atlanta Center
09:05AM 34.4386 -82.9608 54° Northeast 524 603 39,000  Level Atlanta Center
09:06AM 34.5103 -82.8289 57° Northeast 524 603 39,000  Level Atlanta Center
09:07AM 34.5944 -82.6839 55° Northeast 524 603 39,000  Level Atlanta Center
09:08AM 34.6886 -82.5306 53° Northeast 518 596 39,000  Level Atlanta Center
09:09AM 34.7725 -82.3850 55° Northeast 518 596 39,000  Level Atlanta Center
09:10AM 34.8539 -82.2442 55° Northeast 518 596 39,000  Level Atlanta Center
09:11AM 34.9292 -82.1183 54° Northeast 523 602 39,000  Level Atlanta Center
09:12AM 35.0103 -81.9719 56° Northeast 518 596 39,000  Level Atlanta Center
09:13AM 35.0892 -81.8278 56° Northeast 518 596 39,000  Level Atlanta Center
09:14AM 35.1678 -81.6783 57° Northeast 518 596 39,000  Level Atlanta Center
09:15AM 35.2442 -81.5314 57° Northeast 518 596 39,000  Level Atlanta Center
09:16AM 35.3283 -81.3658 58° Northeast 518 596 39,000  Level Atlanta Center
09:17AM 35.4061 -81.2156 58° Northeast 513 590 39,000  Level Atlanta Center
09:18AM 35.4839 -81.0622 58° Northeast 518 596 39,000  Level Atlanta Center
09:19AM 35.5636 -80.9139 57° Northeast 518 596 39,000  Level Atlanta Center
09:20AM 35.6411 -80.7653 57° Northeast 513 590 39,000  Level Atlanta Center
09:21AM 35.7164 -80.6192 58° Northeast 513 590 39,000  Level Atlanta Center
09:22AM 35.7917 -80.4700 58° Northeast 513 590 39,000  Level Atlanta Center
09:23AM 35.8706 -80.3256 56° Northeast 513 590 39,000  Level Atlanta Center
09:25AM 35.9967 -80.0797 58° Northeast 547 629 39,000  Level Washington Center
09:26AM 36.0733 -79.9300 58° Northeast 522 601 39,000  Level Washington Center
09:27AM 36.1578 -79.7853 54° Northeast 515 593 39,000  Level Washington Center
09:28AM 36.2378 -79.6378 56° Northeast 525 604 39,000 -600 Level Washington Center
09:29AM 36.3200 -79.4897 55° Northeast 515 593 37,900 -1,020 Descending Washington Center
09:30AM 36.3997 -79.3442 56° Northeast 510 587 37,000 -1,020 Descending Washington Center
09:31AM 36.4814 -79.2033 54° Northeast 510 587 35,900 -1,860 Descending Washington Center
09:32AM 36.5650 -79.0597 54° Northeast 505 581 33,400 -2,640 Descending Washington Center
09:33AM 36.6439 -78.9183 55° Northeast 505 581 30,800 -2,220 Descending Washington Center
09:34AM 36.7167 -78.7789 57° Northeast 516 594 29,000 -960 Descending Washington Center
09:35AM 36.7956 -78.6369 55° Northeast 516 594 29,000 -360 Level Washington Center
09:36AM 36.8656 -78.5072 56° Northeast 510 587 28,300 -960 Descending Washington Center
09:37AM 36.9592 -78.3367 55° Northeast 505 581 27,100 -660 Descending Washington Center
09:38AM 37.0558 -78.2153 45° Northeast 500 575 27,000 -60 Descending Washington Center
09:39AM 37.1556 -78.1378 32° Northeast 472 543 27,000  Level Washington Center
09:40AM 37.2700 -78.0478 32° Northeast 472 543 27,000  Level Washington Center
09:41AM 37.3825 -77.9547 33° Northeast 477 549 27,000 -540 Level Washington Center
09:42AM 37.4969 -77.8639 32° Northeast 482 555 26,000 -1,020 Descending Washington Center
09:43AM 37.6069 -77.7756 32° Northeast 482 555 25,000 -1,020 Descending Washington Center
09:44AM 37.7169 -77.6867 33° Northeast 476 548 24,000 -1,020 Descending Washington Center
09:45AM 37.8250 -77.5978 33° Northeast 466 536 23,000 -540 Descending Washington Center
09:46AM 37.9306 -77.5111 33° Northeast 456 525 23,000 -540 Level Washington Center
09:47AM 38.0467 -77.4164 33° Northeast 456 525 22,000 -1,560 Descending Washington Center
09:48AM 38.1481 -77.3317 33° Northeast 446 513 19,900 -2,100 Descending Washington Center
09:49AM 38.2472 -77.2519 32° Northeast 434 499 17,900 -2,040 Descending Washington Center
09:50AM 38.3442 -77.1694 34° Northeast 424 488 15,900 -1,920 Descending Washington Center
09:51AM 38.4308 -77.0786 39° Northeast 409 471 14,100 -1,920 Descending Washington Center
09:52AM 38.5114 -76.9847 42° Northeast 395 455 12,100 -1,740 Descending Washington Center
09:53AM 38.5875 -76.8906 44° Northeast 379 436 10,700 -1,080 Descending Washington Center
09:54AM 38.6592 -76.8014 44° Northeast 368 423 10,000 -1,020 Descending Washington Center
09:55AM 38.7206 -76.7144 48° Northeast 343 395 8,700 -1,440 Descending Washington Center
09:56AM 38.7667 -76.5833 66° East 323 372 6,900 -1,440 Descending Potomac TRACON
09:57AM 38.8333 -76.5333 30° Northeast 304 350 5,800 -1,260 Descending Potomac TRACON
09:58AM 38.9167 -76.5167 North 275 316 4,600 -1,320 Descending Potomac TRACON
09:59AM 38.9833 -76.5167 360° North 271 312 3,200 -960 Descending Potomac TRACON
10:00AM 39.0667 -76.5167 360° North 232 267 2,600 -540 Descending Potomac TRACON
10:01AM 39.1167 -76.5333 346° North 212 244 2,100 -540 Descending Potomac TRACON
10:02AM 39.1500 -76.5667 322° Northwest 151 174 1,600 -600 Descending Potomac TRACON
10:03AM 39.1667 -76.6167 293° West 121 139 900 -720 Descending Potomac TRACON
10:05AM 39.1667 -76.6667 339° North  Level FlightAware Approximate
10:12AM 39.1754 -76.6683 339° North  Level Estimated
10:13AM 39.1754 -76.6683 339° North  Level Estimated